Terminal Aerodrome Forecast
Issued by NWS

Home | Current Version | Previous Version | Text Only | Print | Product List | Glossary On
Versions: 1 2 3 4 5 6 7 8 9 10 11 12 13 14 15
000
FTUS46 KSEW 041120
TAFHQM
TAF
KHQM 041120Z 0412/0512 27006KT 6SM BR OVC009
     FM041600 24007KT 6SM HZ OVC015
     FM041800 24009KT P6SM OVC022
     FM042000 24014G22KT P6SM SCT025
     FM050400 27010KT P6SM OVC020=

USA.gov is the U.S. government's official web portal to all federal, state and local government web resources and services.